»·PEaware :: N733TR KYKM-S31

N733TR :: KYKM-S31

FLIGHT INFORMATION

Flight Status: Arrived
Operator: Privately registered:
United States
More flights under this callsign
Pilot: Jonathan B. (787)
Aircraft: Unknown
(LEG2)
More flights by this aircraft type
Origin: KYKM Yakima Air Term/Mcallister
United States
Destination: S31 Lopez Island
United States
More flights between these airports :: More routes between these airports
Route: YKM7 TITAN PAE CVV
File this flight plan on PilotEdge
Remarks: wa alphabet
Altitude:
(Current/Filed)
10,000ft
Speed:
(Current/Filed)
220kts
Departed: 23-Oct-20 03:11 PM
Arrived: 23-Oct-20 03:51 PM
Distance/Time
Traveled:
150nm/0:40
Distance/Time
To Go:
Arrived

Flight Plot

Page will automatically refresh every two minutes.

Flight plan parsing failed; only flown route is shown


Map Options




Map Legend


Flown Route
Filed Route
Departure Airport
Arrival Airport
Navaid (VOR, NDB)
Fix

Horizontal Profiles

Position Reports

Time Latitude Longitude Heading Altitude Ground
Speed
23-Oct-20 14:52 46.573058 -120.553236 248 1101ft 0kts
23-Oct-20 14:53 46.573058 -120.553236 248 1101ft 0kts
23-Oct-20 14:54 46.573058 -120.553236 248 1101ft 0kts
23-Oct-20 14:55 46.573058 -120.553236 248 1101ft 0kts
23-Oct-20 14:56 46.573058 -120.553236 248 1101ft 0kts
23-Oct-20 14:57 46.573058 -120.553236 248 1101ft 0kts
23-Oct-20 14:58 46.573058 -120.553236 248 1101ft 0kts
23-Oct-20 14:59 46.573058 -120.553236 248 1101ft 0kts
23-Oct-20 15:00 46.573058 -120.553236 248 1101ft 0kts
23-Oct-20 15:01 46.573058 -120.553236 248 1101ft 0kts
23-Oct-20 15:02 46.572347 -120.553453 154 1101ft 7kts
23-Oct-20 15:03 46.571345 -120.550289 110 1101ft 7kts
23-Oct-20 15:04 46.570386 -120.546263 111 1101ft 11kts
23-Oct-20 15:05 46.569062 -120.540999 110 1101ft 12kts
23-Oct-20 15:06 46.567615 -120.535482 113 1101ft 14kts
23-Oct-20 15:07 46.566709 -120.531683 117 1101ft 5kts
23-Oct-20 15:08 46.566491 -120.531485 174 1101ft 0kts
23-Oct-20 15:09 46.566186 -120.531449 176 1101ft 10kts
23-Oct-20 15:10 46.577672 -120.572405 285 2176ft 190kts
23-Oct-20 15:11 46.615472 -120.610953 59 4704ft 101kts
23-Oct-20 15:12 46.606829 -120.575920 127 6921ft 129kts
23-Oct-20 15:13 46.597720 -120.513974 78 9093ft 175kts
23-Oct-20 15:14 46.652903 -120.516611 314 10018ft 266kts
23-Oct-20 15:15 46.716052 -120.602707 315 10014ft 292kts
23-Oct-20 15:16 46.782414 -120.692116 314 10010ft 293kts
23-Oct-20 15:17 46.847150 -120.779704 314 10011ft 289kts
23-Oct-20 15:18 46.911504 -120.867129 314 10015ft 289kts
23-Oct-20 15:19 46.974017 -120.952327 314 10017ft 289kts
23-Oct-20 15:20 47.035806 -121.036574 314 10018ft 289kts
23-Oct-20 15:21 47.099963 -121.124515 314 10019ft 289kts
23-Oct-20 15:22 47.163506 -121.211998 314 10009ft 288kts
23-Oct-20 15:23 47.227146 -121.299930 314 10010ft 287kts
23-Oct-20 15:24 47.290679 -121.388011 314 10069ft 285kts
23-Oct-20 15:25 47.353398 -121.475287 314 10131ft 286kts
23-Oct-20 15:26 47.416377 -121.563187 314 10132ft 287kts
23-Oct-20 15:27 47.479121 -121.651062 313 10133ft 288kts
23-Oct-20 15:28 47.541885 -121.739280 313 10130ft 287kts
23-Oct-20 15:29 47.605163 -121.826876 314 10131ft 287kts
23-Oct-20 15:30 47.667382 -121.916171 313 10132ft 287kts
23-Oct-20 15:31 47.729968 -122.005501 313 10133ft 288kts
23-Oct-20 15:32 47.758962 -122.046780 316 10138ft 277kts
23-Oct-20 15:33 47.816463 -122.128706 316 9767ft 265kts
23-Oct-20 15:34 47.874837 -122.211825 316 8084ft 263kts
23-Oct-20 15:35 47.921313 -122.278366 304 6622ft 260kts
23-Oct-20 15:36 47.974640 -122.350598 312 4894ft 235kts
23-Oct-20 15:38 48.022775 -122.416775 312 4008ft 237kts
23-Oct-20 15:39 48.073643 -122.487350 313 4021ft 249kts
23-Oct-20 15:40 48.129619 -122.564776 323 4033ft 245kts
23-Oct-20 15:41 48.174085 -122.626078 325 4038ft 197kts
23-Oct-20 15:42 48.216830 -122.685159 324 4037ft 205kts
23-Oct-20 15:43 48.266797 -122.743965 335 4037ft 201kts
23-Oct-20 15:44 48.321144 -122.791810 336 4037ft 198kts
23-Oct-20 15:45 48.360272 -122.827582 324 3090ft 147kts
23-Oct-20 15:46 48.377085 -122.885910 298 2044ft 127kts
23-Oct-20 15:47 48.397514 -122.939736 334 2019ft 134kts
23-Oct-20 15:48 48.430467 -122.952871 1 1430ft 97kts
23-Oct-20 15:49 48.458492 -122.949029 14 851ft 91kts
23-Oct-20 15:50 48.482515 -122.937615 5 202ft 57kts
23-Oct-20 15:51 48.485738 -122.936654 22 202ft 0kts

Navigation Log

Ident Type
Flight plan parsing failed, navigation log unavailable